createdAt,value
2018-03-30T00:00:15.385Z,4.33
2018-03-30T00:02:42.862Z,4.07
2018-03-30T00:05:11.082Z,4.47
2018-03-30T00:07:38.654Z,4.37
2018-03-30T00:10:06.128Z,4.20
2018-03-30T00:12:33.603Z,4.10
2018-03-30T00:15:01.059Z,4.40
2018-03-30T00:17:28.521Z,4.40
2018-03-30T00:19:56.745Z,4.57
2018-03-30T00:22:25.044Z,4.20
2018-03-30T00:24:52.520Z,4.10
2018-03-30T00:27:20.034Z,4.70
2018-03-30T00:29:47.557Z,3.60
2018-03-30T00:32:15.785Z,4.30
2018-03-30T00:34:43.270Z,4.10
2018-03-30T00:37:11.497Z,3.73
2018-03-30T00:39:39.028Z,4.27
2018-03-30T00:42:06.433Z,4.27
2018-03-30T00:44:34.638Z,3.50
2018-03-30T00:47:02.871Z,4.73
2018-03-30T00:49:30.352Z,3.90
2018-03-30T00:51:57.811Z,4.50
2018-03-30T00:54:25.290Z,4.27
2018-03-30T00:56:53.504Z,4.00
2018-03-30T00:59:20.982Z,4.40
2018-03-30T01:01:48.443Z,4.10
2018-03-30T01:04:15.920Z,4.50
2018-03-30T01:06:44.168Z,4.30
2018-03-30T01:09:11.771Z,4.40
2018-03-30T01:11:40.010Z,4.23
2018-03-30T01:14:07.471Z,4.30
2018-03-30T01:16:34.938Z,4.53
2018-03-30T01:19:02.405Z,4.63
2018-03-30T01:21:30.796Z,4.40
2018-03-30T01:23:59.019Z,4.20
2018-03-30T01:26:26.606Z,4.10
2018-03-30T01:28:54.809Z,3.83
2018-03-30T01:31:23.052Z,3.50
2018-03-30T01:33:50.521Z,3.30
2018-03-30T01:36:17.990Z,4.03
2018-03-30T01:38:46.217Z,4.47
2018-03-30T01:41:14.663Z,3.97
2018-03-30T01:43:42.200Z,4.23
2018-03-30T01:46:09.669Z,4.27
2018-03-30T01:48:38.009Z,3.57
2018-03-30T01:51:05.509Z,3.57
2018-03-30T01:53:33.803Z,3.93
2018-03-30T01:56:01.278Z,4.00
2018-03-30T01:58:28.745Z,3.97
2018-03-30T02:00:56.210Z,3.60
2018-03-30T02:03:23.681Z,3.87
2018-03-30T02:05:51.156Z,3.90
2018-03-30T02:08:19.542Z,4.17
2018-03-30T02:10:47.781Z,4.00
2018-03-30T02:13:15.265Z,3.90
2018-03-30T02:15:44.518Z,4.33
2018-03-30T02:18:12.048Z,4.17
2018-03-30T02:20:39.667Z,3.90
2018-03-30T02:23:07.359Z,4.47
2018-03-30T02:25:35.565Z,4.00
2018-03-30T02:28:03.047Z,3.90
2018-03-30T02:30:30.509Z,3.93
2018-03-30T02:32:57.992Z,4.30
2018-03-30T02:35:26.218Z,4.10
2018-03-30T02:37:53.922Z,4.43
2018-03-30T02:40:21.378Z,4.10
2018-03-30T02:42:49.626Z,4.40
2018-03-30T02:45:17.090Z,4.27
2018-03-30T02:47:44.567Z,4.70
2018-03-30T02:50:12.039Z,4.40
2018-03-30T02:52:40.285Z,3.97
2018-03-30T02:55:07.770Z,4.07
2018-03-30T02:57:36.105Z,4.50
2018-03-30T03:00:03.685Z,4.80
2018-03-30T03:02:31.158Z,4.50
2018-03-30T03:04:59.469Z,4.10
2018-03-30T03:07:26.942Z,4.13
2018-03-30T03:09:54.409Z,4.67
2018-03-30T03:12:21.866Z,4.40
2018-03-30T03:14:49.364Z,3.97
2018-03-30T03:17:17.597Z,4.13
2018-03-30T03:19:45.072Z,4.70
2018-03-30T03:22:12.544Z,4.37
2018-03-30T03:24:40.086Z,4.70
2018-03-30T03:27:07.550Z,4.40
2018-03-30T03:29:35.225Z,4.27
2018-03-30T03:32:02.780Z,4.20
2018-03-30T03:34:31.009Z,4.40
2018-03-30T03:36:58.481Z,4.33
2018-03-30T03:39:25.941Z,4.50
2018-03-30T03:41:53.413Z,3.97
2018-03-30T03:44:20.883Z,4.50
2018-03-30T03:46:48.350Z,4.27
2018-03-30T03:49:16.575Z,4.63
2018-03-30T03:51:44.046Z,4.43
2018-03-30T03:54:11.506Z,4.20
2018-03-30T03:56:38.980Z,4.13
2018-03-30T03:59:06.444Z,4.50
2018-03-30T04:01:33.929Z,4.23
2018-03-30T04:04:01.388Z,5.00
2018-03-30T04:06:28.883Z,4.80
2018-03-30T04:08:56.343Z,4.17
2018-03-30T04:11:23.824Z,4.30
2018-03-30T04:13:51.384Z,3.90
2018-03-30T04:16:19.633Z,4.97
2018-03-30T04:18:47.089Z,4.40
2018-03-30T04:21:14.555Z,4.33
2018-03-30T04:23:42.016Z,4.87
2018-03-30T04:26:09.491Z,4.63
2018-03-30T04:28:37.010Z,4.40
2018-03-30T04:31:05.185Z,4.37
2018-03-30T04:33:32.726Z,4.50
2018-03-30T04:36:00.180Z,4.50
2018-03-30T04:38:27.774Z,4.30
2018-03-30T04:40:55.316Z,4.20
2018-03-30T04:43:22.859Z,3.73
2018-03-30T04:45:50.434Z,4.40
2018-03-30T04:48:17.921Z,4.30
2018-03-30T04:50:45.395Z,4.60
2018-03-30T04:53:13.633Z,4.27
2018-03-30T04:55:41.085Z,4.50
2018-03-30T04:58:08.569Z,3.93
2018-03-30T05:00:36.047Z,4.30
2018-03-30T05:03:04.285Z,4.87
2018-03-30T05:05:31.746Z,4.73
2018-03-30T05:07:59.221Z,4.57
2018-03-30T05:10:26.693Z,4.00
2018-03-30T05:12:54.919Z,4.20
2018-03-30T05:15:22.395Z,4.20
2018-03-30T05:17:49.866Z,4.63
2018-03-30T05:20:17.477Z,4.40
2018-03-30T05:22:45.068Z,4.50
2018-03-30T05:25:12.634Z,4.80
2018-03-30T05:27:40.195Z,4.67
2018-03-30T05:30:07.670Z,5.67
2018-03-30T05:32:35.942Z,5.20
2018-03-30T05:35:04.349Z,5.53
2018-03-30T05:37:31.926Z,5.80
2018-03-30T05:39:59.466Z,5.63
2018-03-30T05:42:27.086Z,5.53
2018-03-30T05:44:54.560Z,5.03
2018-03-30T05:47:22.189Z,4.93
2018-03-30T05:49:49.754Z,5.10
2018-03-30T05:52:17.390Z,5.10
2018-03-30T05:54:44.872Z,4.33
2018-03-30T05:57:12.504Z,4.70
2018-03-30T05:59:40.053Z,4.77
2018-03-30T06:02:07.517Z,4.57
2018-03-30T06:04:34.989Z,4.27
2018-03-30T06:07:02.650Z,4.60
2018-03-30T06:09:30.120Z,4.37
2018-03-30T06:11:57.606Z,4.90
2018-03-30T06:14:25.848Z,4.87
2018-03-30T06:16:53.328Z,4.70
2018-03-30T06:19:20.783Z,4.70
2018-03-30T06:21:48.795Z,4.30
2018-03-30T06:24:16.289Z,4.90
2018-03-30T06:26:43.805Z,4.63
2018-03-30T06:29:11.386Z,4.50
2018-03-30T06:31:38.865Z,4.80
2018-03-30T06:34:06.459Z,4.60
2018-03-30T06:36:34.702Z,5.27
2018-03-30T06:39:02.393Z,4.63
2018-03-30T06:41:30.641Z,4.67
2018-03-30T06:43:58.116Z,4.50
2018-03-30T06:46:25.600Z,4.70
2018-03-30T06:48:53.869Z,4.47
2018-03-30T06:51:22.104Z,5.10
2018-03-30T06:53:49.634Z,4.77
2018-03-30T06:56:17.255Z,5.27
2018-03-30T06:58:44.719Z,4.80
2018-03-30T07:01:12.942Z,4.80
2018-03-30T07:03:40.535Z,4.70
2018-03-30T07:06:08.253Z,4.50
2018-03-30T07:08:35.775Z,4.67
2018-03-30T07:11:04.098Z,4.80
2018-03-30T07:13:31.805Z,5.20
2018-03-30T07:16:00.032Z,5.40
2018-03-30T07:18:27.491Z,5.10
2018-03-30T07:20:54.954Z,4.40
2018-03-30T07:23:22.611Z,4.53
2018-03-30T07:25:50.092Z,4.97
2018-03-30T07:28:17.556Z,5.60
2018-03-30T07:30:45.070Z,5.77
2018-03-30T07:33:12.523Z,4.90
2018-03-30T07:35:40.009Z,4.73
2018-03-30T07:38:07.476Z,4.67
2018-03-30T07:40:34.981Z,4.60
2018-03-30T07:43:02.431Z,4.80
2018-03-30T07:45:30.014Z,4.70
2018-03-30T07:47:57.490Z,5.33
2018-03-30T07:50:25.052Z,5.40
2018-03-30T07:52:52.589Z,5.00
2018-03-30T07:55:20.096Z,5.20
2018-03-30T07:57:47.576Z,5.30
2018-03-30T08:00:15.969Z,5.60
2018-03-30T08:02:43.451Z,5.50
2018-03-30T08:05:10.917Z,5.40
2018-03-30T08:07:38.442Z,4.50
2018-03-30T08:10:06.129Z,4.60
2018-03-30T08:12:33.616Z,4.57
2018-03-30T08:15:01.860Z,5.13
2018-03-30T08:17:29.544Z,4.63
2018-03-30T08:19:57.072Z,5.37
2018-03-30T08:22:24.493Z,5.10
2018-03-30T08:24:52.727Z,4.83
2018-03-30T08:27:20.212Z,4.63
2018-03-30T08:29:48.547Z,4.50
2018-03-30T08:32:16.094Z,4.90
2018-03-30T08:34:43.562Z,4.83
2018-03-30T08:37:11.051Z,4.70
2018-03-30T08:39:38.642Z,4.00
2018-03-30T08:42:06.971Z,4.60
2018-03-30T08:44:34.622Z,4.77
2018-03-30T08:47:02.089Z,4.50
2018-03-30T08:49:29.810Z,4.10
2018-03-30T08:51:57.271Z,3.83
2018-03-30T08:54:24.761Z,4.07
2018-03-30T08:56:52.223Z,4.17
2018-03-30T08:59:19.712Z,4.10
2018-03-30T09:01:47.960Z,4.10
2018-03-30T09:04:15.435Z,3.53
2018-03-30T09:06:42.904Z,4.10
2018-03-30T09:09:11.185Z,3.77
2018-03-30T09:11:38.739Z,4.20
2018-03-30T09:14:06.251Z,4.60
2018-03-30T09:16:33.756Z,3.63
2018-03-30T09:19:02.018Z,4.03
2018-03-30T09:21:29.496Z,4.43
2018-03-30T09:23:57.758Z,3.83
2018-03-30T09:26:25.220Z,3.47
2018-03-30T09:28:53.473Z,3.90
2018-03-30T09:31:21.273Z,4.17
2018-03-30T09:33:49.603Z,3.97
2018-03-30T09:36:17.088Z,3.90
2018-03-30T09:38:46.105Z,3.27
2018-03-30T09:41:14.329Z,3.50
2018-03-30T09:43:41.801Z,3.00
2018-03-30T09:46:09.269Z,3.67
2018-03-30T09:48:37.497Z,3.47
2018-03-30T09:51:04.995Z,3.53
2018-03-30T09:53:33.023Z,3.10
2018-03-30T09:56:00.972Z,3.00
2018-03-30T09:58:28.441Z,3.40
2018-03-30T10:01:01.934Z,3.87
2018-03-30T10:03:29.437Z,4.10
2018-03-30T10:05:56.917Z,3.80
2018-03-30T10:08:25.310Z,3.47
2018-03-30T10:10:53.570Z,3.43
2018-03-30T10:13:21.829Z,3.87
2018-03-30T10:15:50.860Z,4.00
2018-03-30T10:18:18.351Z,3.40
2018-03-30T10:20:45.932Z,3.53
2018-03-30T10:23:13.580Z,3.37
2018-03-30T10:25:41.069Z,4.10
2018-03-30T10:28:09.307Z,3.23
2018-03-30T10:30:36.775Z,3.30
2018-03-30T10:33:04.294Z,3.40
2018-03-30T10:35:31.830Z,3.50
2018-03-30T10:38:00.198Z,3.20
2018-03-30T10:40:27.759Z,3.30
2018-03-30T10:42:55.242Z,3.50
2018-03-30T10:45:22.727Z,2.60
2018-03-30T10:47:50.218Z,2.90
2018-03-30T10:50:17.700Z,2.90
2018-03-30T10:52:45.925Z,3.10
2018-03-30T10:55:13.513Z,3.40
2018-03-30T10:57:41.761Z,3.17
2018-03-30T11:00:09.262Z,3.67
2018-03-30T11:02:37.519Z,3.43
2018-03-30T11:05:05.011Z,3.37
2018-03-30T11:07:33.240Z,3.13
2018-03-30T11:10:00.730Z,2.93
2018-03-30T11:12:28.970Z,2.87
2018-03-30T11:14:56.462Z,2.37
2018-03-30T11:17:24.816Z,2.40
2018-03-30T11:19:53.055Z,1.83
2018-03-30T11:22:20.518Z,2.20
2018-03-30T11:24:48.001Z,2.07
2018-03-30T11:27:15.484Z,2.07
2018-03-30T11:29:43.737Z,1.90
2018-03-30T11:32:11.204Z,2.33
2018-03-30T11:34:40.198Z,2.40
2018-03-30T11:37:09.186Z,2.40
2018-03-30T11:39:37.433Z,2.80
2018-03-30T11:42:05.026Z,2.70
2018-03-30T11:44:32.512Z,2.50
2018-03-30T11:46:59.993Z,2.30
2018-03-30T11:49:27.460Z,2.53
2018-03-30T11:51:54.934Z,1.87
2018-03-30T11:54:22.590Z,2.40
2018-03-30T11:56:50.196Z,2.10
2018-03-30T11:59:17.783Z,2.17
2018-03-30T12:01:47.569Z,2.27
2018-03-30T12:04:16.582Z,2.97
2018-03-30T12:06:44.082Z,2.40
2018-03-30T12:09:11.641Z,2.47
2018-03-30T12:11:39.149Z,2.27
2018-03-30T12:14:06.619Z,2.30
2018-03-30T12:16:34.086Z,2.40
2018-03-30T12:19:01.548Z,2.87
2018-03-30T12:21:29.033Z,2.30
2018-03-30T12:23:57.997Z,2.40
2018-03-30T12:26:25.465Z,2.03
2018-03-30T12:28:52.952Z,2.07
2018-03-30T12:31:21.190Z,1.60
2018-03-30T12:33:48.702Z,1.63
2018-03-30T12:36:16.929Z,1.77
2018-03-30T12:38:44.408Z,1.80
2018-03-30T12:41:13.385Z,1.60
2018-03-30T12:43:40.861Z,1.50
2018-03-30T12:46:09.830Z,1.50
2018-03-30T12:48:37.417Z,1.50
2018-03-30T12:51:04.881Z,1.47
2018-03-30T12:53:33.153Z,1.47
2018-03-30T12:56:01.394Z,1.33
2018-03-30T12:58:28.868Z,1.63
2018-03-30T13:00:56.342Z,1.33
2018-03-30T13:03:24.579Z,1.57
2018-03-30T13:05:52.364Z,1.83
2018-03-30T13:08:19.835Z,1.53
2018-03-30T13:10:47.303Z,1.70
2018-03-30T13:13:15.547Z,1.50
2018-03-30T13:15:43.021Z,1.70
2018-03-30T13:18:10.479Z,1.40
2018-03-30T13:20:38.029Z,2.00
2018-03-30T13:23:06.269Z,1.77
2018-03-30T13:25:34.002Z,1.43
2018-03-30T13:28:02.229Z,1.80
2018-03-30T13:30:29.722Z,1.60
2018-03-30T13:32:57.965Z,1.70
2018-03-30T13:35:25.548Z,1.90
2018-03-30T13:37:53.040Z,1.90
2018-03-30T13:40:20.589Z,1.97
2018-03-30T13:42:48.120Z,1.80
2018-03-30T13:45:16.476Z,1.60
2018-03-30T13:47:43.955Z,1.97
2018-03-30T13:50:14.429Z,1.70
2018-03-30T13:52:42.817Z,1.90
2018-03-30T13:55:11.680Z,3.60
2018-03-30T13:57:41.845Z,5.70
2018-03-30T14:00:26.006Z,9.30
2018-03-30T14:02:53.477Z,4.50
2018-03-30T14:05:22.693Z,2.17
2018-03-30T14:08:13.508Z,4.80
2018-03-30T14:10:43.729Z,4.50
2018-03-30T14:13:11.214Z,3.40
2018-03-30T14:18:37.882Z,6.90
2018-03-30T14:21:08.910Z,3.57
2018-03-30T14:23:37.100Z,4.20
2018-03-30T14:26:22.353Z,2.63
2018-03-30T14:28:51.489Z,2.80
2018-03-30T14:31:26.554Z,2.80
2018-03-30T14:33:54.781Z,1.60
2018-03-30T14:36:27.669Z,2.80
2018-03-30T14:39:10.917Z,3.10
2018-03-30T14:41:38.373Z,2.70
2018-03-30T14:47:06.263Z,2.00
2018-03-30T14:49:34.494Z,2.10
2018-03-30T14:55:05.212Z,2.50
2018-03-30T14:57:35.047Z,1.60
2018-03-30T15:00:14.934Z,2.23
2018-03-30T15:02:44.100Z,2.00
2018-03-30T15:08:30.778Z,2.70
2018-03-30T15:11:06.618Z,2.13
2018-03-30T15:13:37.982Z,2.30
2018-03-30T15:19:21.692Z,2.40
2018-03-30T15:21:55.171Z,1.90
2018-03-30T15:24:43.399Z,2.30
2018-03-30T15:27:20.979Z,1.70
2018-03-30T15:30:02.273Z,1.60
2018-03-30T15:32:39.361Z,2.07
2018-03-30T15:35:07.876Z,1.80
2018-03-30T15:37:36.334Z,1.80
2018-03-30T15:40:08.797Z,1.90
2018-03-30T15:45:39.910Z,1.70
2018-03-30T15:48:08.537Z,2.20
2018-03-30T15:50:37.158Z,1.77
2018-03-30T15:53:04.920Z,1.90
2018-03-30T15:55:33.226Z,2.03
2018-03-30T15:58:02.282Z,2.00
2018-03-30T16:00:29.750Z,2.07
2018-03-30T16:02:57.238Z,1.97
2018-03-30T16:05:25.537Z,1.90
2018-03-30T16:07:53.781Z,2.07
2018-03-30T16:10:21.253Z,2.20
2018-03-30T16:12:49.789Z,1.70
2018-03-30T16:15:17.290Z,2.00
2018-03-30T16:17:44.778Z,2.20
2018-03-30T16:20:12.524Z,2.37
2018-03-30T16:22:40.350Z,2.30
2018-03-30T16:25:07.812Z,2.00
2018-03-30T16:27:34.929Z,2.33
2018-03-30T16:30:01.899Z,2.40
2018-03-30T16:32:28.876Z,2.20
2018-03-30T16:34:56.628Z,2.63
2018-03-30T16:37:23.603Z,2.40
2018-03-30T16:39:52.015Z,2.37
2018-03-30T16:42:18.991Z,2.00
2018-03-30T16:44:45.966Z,2.20
2018-03-30T16:47:13.710Z,2.37
2018-03-30T16:49:40.732Z,2.17
2018-03-30T16:52:07.761Z,2.27
2018-03-30T16:54:34.755Z,2.40
2018-03-30T16:57:01.722Z,2.10
2018-03-30T16:59:29.536Z,2.50
2018-03-30T17:01:57.469Z,2.70
2018-03-30T17:04:25.356Z,2.40
2018-03-30T17:06:52.436Z,2.73
2018-03-30T17:09:19.478Z,2.10
2018-03-30T17:11:46.457Z,2.70
2018-03-30T17:14:14.268Z,2.60
2018-03-30T17:16:41.959Z,2.47
2018-03-30T17:19:09.151Z,2.90
2018-03-30T17:21:36.151Z,2.60
2018-03-30T17:24:03.201Z,2.80
2018-03-30T17:26:30.580Z,2.30
2018-03-30T17:28:58.329Z,2.73
2018-03-30T17:31:27.792Z,3.00
2018-03-30T17:33:54.875Z,3.00
2018-03-30T17:36:22.159Z,2.70
2018-03-30T17:38:49.162Z,2.40
2018-03-30T17:41:16.398Z,2.77
2018-03-30T17:43:43.511Z,2.80
2018-03-30T17:46:10.582Z,3.77
2018-03-30T17:48:37.642Z,2.90
2018-03-30T17:51:04.785Z,2.73
2018-03-30T17:53:32.529Z,2.93
2018-03-30T17:55:59.572Z,3.10
2018-03-30T17:58:26.592Z,3.37
2018-03-30T18:00:53.598Z,2.80
2018-03-30T18:03:20.693Z,2.90
2018-03-30T18:05:48.510Z,2.83
2018-03-30T18:08:15.571Z,2.90
2018-03-30T18:10:43.403Z,3.93
2018-03-30T18:13:10.393Z,3.53
2018-03-30T18:15:37.487Z,5.53
2018-03-30T18:18:04.556Z,4.03
2018-03-30T18:20:31.644Z,4.00
2018-03-30T18:22:58.931Z,4.13
2018-03-30T18:25:27.110Z,4.23
2018-03-30T18:27:54.948Z,3.50
2018-03-30T18:30:22.760Z,3.60
2018-03-30T18:32:50.004Z,4.10
2018-03-30T18:35:17.093Z,3.97
2018-03-30T18:37:44.274Z,3.47
2018-03-30T18:40:11.336Z,3.50
2018-03-30T18:42:38.496Z,3.90
2018-03-30T18:45:05.533Z,5.10
2018-03-30T18:47:32.640Z,7.43
2018-03-30T18:49:59.677Z,5.97
2018-03-30T18:52:26.835Z,5.67
2018-03-30T18:54:54.661Z,5.70
2018-03-30T18:57:21.703Z,4.67
2018-03-30T18:59:48.762Z,4.87
2018-03-30T19:02:15.800Z,4.47
2018-03-30T19:04:42.786Z,4.90
2018-03-30T19:07:09.890Z,4.37
2018-03-30T19:09:36.893Z,4.50
2018-03-30T19:12:04.686Z,4.50
2018-03-30T19:14:31.657Z,4.67
2018-03-30T19:16:58.642Z,4.30
2018-03-30T19:19:25.699Z,4.60
2018-03-30T19:21:52.854Z,4.33
2018-03-30T19:24:19.912Z,4.63
2018-03-30T19:26:46.963Z,4.23
2018-03-30T19:29:13.998Z,3.90
2018-03-30T19:31:41.782Z,4.50
2018-03-30T19:34:09.458Z,3.63
2018-03-30T19:36:36.592Z,4.03
2018-03-30T19:39:03.599Z,2.80
2018-03-30T19:41:30.633Z,3.00
2018-03-30T19:43:57.905Z,2.30
2018-03-30T19:46:25.673Z,2.07
2018-03-30T19:48:53.516Z,2.03
2018-03-30T19:51:20.537Z,1.80
2018-03-30T19:53:47.580Z,2.30
2018-03-30T19:56:14.690Z,1.47
2018-03-30T19:58:42.451Z,1.57
2018-03-30T20:01:10.297Z,1.20
2018-03-30T20:03:37.665Z,1.40
2018-03-30T20:06:04.910Z,1.30
2018-03-30T20:08:31.940Z,1.23
2018-03-30T20:10:59.164Z,1.10
2018-03-30T20:13:26.167Z,1.10
2018-03-30T20:15:53.930Z,1.17
2018-03-30T20:18:21.089Z,1.20
2018-03-30T20:20:48.186Z,1.00
2018-03-30T20:23:15.404Z,1.17
2018-03-30T20:25:42.322Z,1.30
2018-03-30T20:28:09.688Z,1.37
2018-03-30T20:30:36.720Z,1.20
2018-03-30T20:33:03.915Z,1.50
2018-03-30T20:35:30.962Z,1.40
2018-03-30T20:37:57.974Z,1.43
2018-03-30T20:40:25.716Z,1.27
2018-03-30T20:42:52.713Z,1.60
2018-03-30T20:45:19.698Z,1.33
2018-03-30T20:47:46.665Z,1.30
2018-03-30T20:50:14.477Z,1.40
2018-03-30T20:52:41.458Z,1.43
2018-03-30T20:55:09.209Z,1.20
2018-03-30T20:57:36.251Z,1.53
2018-03-30T21:00:03.327Z,1.53
2018-03-30T21:02:30.298Z,1.40
2018-03-30T21:04:58.038Z,1.40
2018-03-30T21:07:25.162Z,1.43
2018-03-30T21:09:52.792Z,1.70
2018-03-30T21:12:19.783Z,1.90
2018-03-30T21:14:46.767Z,1.40
2018-03-30T21:17:13.751Z,1.50
2018-03-30T21:19:40.729Z,1.50
2018-03-30T21:22:08.488Z,1.23
2018-03-30T21:24:36.224Z,1.90
2018-03-30T21:27:03.244Z,1.73
2018-03-30T21:29:30.202Z,1.80
2018-03-30T21:31:57.177Z,1.50
2018-03-30T21:34:24.192Z,1.40
2018-03-30T21:36:51.906Z,1.50
2018-03-30T21:39:19.733Z,1.80
2018-03-30T21:41:47.428Z,2.00
2018-03-30T21:44:14.420Z,1.90
2018-03-30T21:46:41.433Z,1.67
2018-03-30T21:49:09.171Z,2.00
2018-03-30T21:51:36.387Z,1.80
2018-03-30T21:54:03.493Z,2.03
2018-03-30T21:56:31.278Z,1.90
2018-03-30T21:58:58.273Z,1.73
2018-03-30T22:01:25.290Z,1.80
2018-03-30T22:03:52.946Z,2.17
2018-03-30T22:06:20.461Z,1.97
2018-03-30T22:08:47.441Z,2.30
2018-03-30T22:11:14.417Z,2.10
2018-03-30T22:13:41.411Z,2.10
2018-03-30T22:16:09.233Z,2.00
2018-03-30T22:18:36.653Z,2.50
2018-03-30T22:21:03.638Z,2.03
2018-03-30T22:23:30.627Z,1.97
2018-03-30T22:25:58.368Z,2.50
2018-03-30T22:28:25.505Z,2.30
2018-03-30T22:30:52.488Z,2.30
2018-03-30T22:33:20.217Z,2.30
2018-03-30T22:35:47.189Z,2.57
2018-03-30T22:38:15.133Z,2.27
2018-03-30T22:40:42.113Z,2.20
2018-03-30T22:43:09.089Z,2.27
2018-03-30T22:45:36.072Z,2.40
2018-03-30T22:48:03.101Z,2.20
2018-03-30T22:50:30.097Z,2.33
2018-03-30T22:52:57.077Z,2.00
2018-03-30T22:55:24.108Z,2.40
2018-03-30T22:57:51.078Z,2.50
2018-03-30T23:00:18.064Z,2.83
2018-03-30T23:02:45.798Z,2.80
2018-03-30T23:05:13.547Z,2.97
2018-03-30T23:07:40.515Z,2.80
2018-03-30T23:10:09.018Z,2.60
2018-03-30T23:12:36.757Z,3.13
2018-03-30T23:15:03.730Z,2.80
2018-03-30T23:17:31.497Z,2.67
2018-03-30T23:19:59.264Z,3.00
2018-03-30T23:22:27.008Z,3.17
2018-03-30T23:24:54.561Z,3.07
2018-03-30T23:27:21.546Z,3.40
2018-03-30T23:29:48.520Z,3.00
2018-03-30T23:32:15.501Z,3.20
2018-03-30T23:34:43.321Z,2.80
2018-03-30T23:37:10.314Z,2.83
2018-03-30T23:39:38.066Z,2.73
2018-03-30T23:42:05.049Z,3.33
2018-03-30T23:44:37.778Z,2.73
2018-03-30T23:47:04.762Z,2.50
2018-03-30T23:49:32.509Z,2.80
2018-03-30T23:51:59.487Z,2.80
2018-03-30T23:54:26.614Z,2.40
2018-03-30T23:56:54.373Z,2.40
2018-03-30T23:59:21.945Z,2.93
